Airfield :







YOU CAN JOIN US ON...

 
LOGIN :

Register | Disclaimer

   EN    FR    IT 

 









Legend :    VFR   Marginal VFR   IFR   Intensive IFR   Very Intensive IFR
Visi :
Ceiling :
>= 8 km
>= 3000ft
5 to 8 km
1000 to 3000 ft
1500m to 5 km
500 to 1000 ft
800 to 1500m
200 to 500 ft
< 800m
< 200 ft
Symbols :   Thunderstorms  Fog  Heavy snow  Heavy precipitations  Wind > 20 kt






- Airport Elevation : 654 ft


KAQW - Harriman and West

CURRENT METAR :
  • 011152Z AUTO 00000KT 10SM CLR M02/M04 A3009 RMK AO2 SLP199 60000 T10221044 10056 21033 51010

EXPIRED METARs :
  • 011052Z AUTO 00000KT 10SM CLR M03/M04 A3008 RMK AO2 SLP196 T10281044
  • 010952Z AUTO 00000KT 10SM CLR M02/M04 A3008 RMK AO2 SLP193 T10221044
  • 010852Z AUTO 00000KT 10SM CLR M01/M04 A3006 RMK AO2 SLP187 60000 T10061039 51006
  • 010752Z AUTO 00000KT 10SM CLR 01/M03 A3006 RMK AO2 SLP186 T00111028

TAF N/A
KZBW FIR / North America



MET'MAP, your aeronautical weather chart ! - Copyright ORBIFLY December 2007 - Disclaimer

ORBIFLY MET'MAP TEAM :

Programming & Development : Alexandra Zaïnal
Original concept : Baudouin d'Aumeries
Technical & hardware support : Manuel Goepfert
Assistance : Marc-Olivier Méhu




SOURCES & CREDITS :

   NOAA